CYZV

Sept-Iles Airport

ICAO Code CYZV
IATA Code YZV
Name Sept-Iles Airport
Location Sept-Iles, Quebec, CA
Elevation 180 Feet / 54.9 Meters
Latitude 50.22333333
Longitude -66.26555556
METAR CYZV 131500Z 23011G17KT 30SM FEW060 SCT080 BKN120 BKN250 11/M00 A2994 RMK CU1AC2AC2CI1 SLP142
Extra information Display Charts and CFS
Display NOTAMS
Runway Length Width Surface Elevation
09 6552 ft 150 ft ASP 164 ft
13 5771 ft 200 ft ASP 170 ft
27 6552 ft 150 ft ASP 174 ft
31 5771 ft 200 ft ASP 174 ft

Mandatory Routes

Sept-Iles Airport

Direction Destination Level Remark Type Route
DEP TO SW H&L A120 & ABV RNAV MIVAX
DEP TO SW L A100 & BLW YZV V316 MIVAX
DEP TO CYBC L RNAV YZV V316 YBC
DEP TO CYBG L RNAV YZV V316 YBC KAVMU
DEP TO CYRC L RNAV YZV V316 YBC KAVMU